Terminal Aerodrome Forecast
Issued by NWS

Home | Current Version | Previous Version | Text Only | Print | Product List | Glossary On
Versions: 1 2 3 4 5 6 7 8 9 10 11 12 13 14 15 16 17
319
FTUS42 KTBW 090521
TAFLAL
TAF
KLAL 090521Z 0906/1006 01009KT P6SM VCSH SCT050 OVC120
     FM091500 01011KT P6SM SCT050 BKN100 OVC150
     FM091900 03011KT P6SM SCT100 BKN250
      AMD NOT SKED TIL 091100=

USA.gov is the U.S. government's official web portal to all federal, state and local government web resources and services.